sensor_id;sensor_type;location;lat;lon;timestamp;temperature;humidity
37518;DHT22;23366;52.498;13.446;2023-04-25T00:02:25;10.70;99.90
37518;DHT22;23366;52.498;13.446;2023-04-25T00:04:50;10.70;99.90
37518;DHT22;23366;52.498;13.446;2023-04-25T00:07:16;10.60;99.90
37518;DHT22;23366;52.498;13.446;2023-04-25T00:09:42;10.60;99.90
37518;DHT22;23366;52.498;13.446;2023-04-25T00:12:07;10.50;99.90
37518;DHT22;23366;52.498;13.446;2023-04-25T00:14:35;10.50;99.90
37518;DHT22;23366;52.498;13.446;2023-04-25T00:17:01;10.60;99.90
37518;DHT22;23366;52.498;13.446;2023-04-25T00:19:28;10.50;99.90
37518;DHT22;23366;52.498;13.446;2023-04-25T00:21:54;10.50;99.90
37518;DHT22;23366;52.498;13.446;2023-04-25T00:24:20;10.50;99.90
37518;DHT22;23366;52.498;13.446;2023-04-25T00:26:46;10.50;99.90
37518;DHT22;23366;52.498;13.446;2023-04-25T00:29:11;10.50;99.90
37518;DHT22;23366;52.498;13.446;2023-04-25T00:31:36;10.50;99.90
37518;DHT22;23366;52.498;13.446;2023-04-25T00:34:02;10.50;99.90
37518;DHT22;23366;52.498;13.446;2023-04-25T00:36:28;10.50;99.90
37518;DHT22;23366;52.498;13.446;2023-04-25T00:38:53;10.50;99.90
37518;DHT22;23366;52.498;13.446;2023-04-25T00:41:20;10.50;99.90
37518;DHT22;23366;52.498;13.446;2023-04-25T00:43:46;10.50;99.90
37518;DHT22;23366;52.498;13.446;2023-04-25T00:46:12;10.40;99.90
37518;DHT22;23366;52.498;13.446;2023-04-25T00:48:38;10.40;99.90
37518;DHT22;23366;52.498;13.446;2023-04-25T00:51:03;10.50;99.90
37518;DHT22;23366;52.498;13.446;2023-04-25T00:53:30;10.40;99.90
37518;DHT22;23366;52.498;13.446;2023-04-25T00:55:57;10.40;99.90
37518;DHT22;23366;52.498;13.446;2023-04-25T00:58:23;10.40;99.90
37518;DHT22;23366;52.498;13.446;2023-04-25T01:00:50;10.50;99.90
37518;DHT22;23366;52.498;13.446;2023-04-25T01:03:17;10.40;99.90
37518;DHT22;23366;52.498;13.446;2023-04-25T01:05:44;10.40;99.90
37518;DHT22;23366;52.498;13.446;2023-04-25T01:08:10;10.50;99.90
37518;DHT22;23366;52.498;13.446;2023-04-25T01:10:36;10.40;99.90
37518;DHT22;23366;52.498;13.446;2023-04-25T01:13:01;10.40;99.90
37518;DHT22;23366;52.498;13.446;2023-04-25T01:15:27;10.40;99.90
37518;DHT22;23366;52.498;13.446;2023-04-25T01:17:53;10.40;99.90
37518;DHT22;23366;52.498;13.446;2023-04-25T01:20:21;10.40;99.90
37518;DHT22;23366;52.498;13.446;2023-04-25T01:22:48;10.40;99.90
37518;DHT22;23366;52.498;13.446;2023-04-25T01:25:14;10.40;99.90
37518;DHT22;23366;52.498;13.446;2023-04-25T01:27:40;10.40;99.90
37518;DHT22;23366;52.498;13.446;2023-04-25T01:30:06;10.40;99.90
37518;DHT22;23366;52.498;13.446;2023-04-25T01:32:33;10.40;99.90
37518;DHT22;23366;52.498;13.446;2023-04-25T01:35:08;10.40;99.90
37518;DHT22;23366;52.498;13.446;2023-04-25T01:37:37;10.40;99.90
37518;DHT22;23366;52.498;13.446;2023-04-25T01:40:03;10.40;99.90
37518;DHT22;23366;52.498;13.446;2023-04-25T01:42:31;10.40;99.90
37518;DHT22;23366;52.498;13.446;2023-04-25T01:44:57;10.40;99.90
37518;DHT22;23366;52.498;13.446;2023-04-25T01:47:22;10.40;99.90
37518;DHT22;23366;52.498;13.446;2023-04-25T01:49:48;10.50;99.90
37518;DHT22;23366;52.498;13.446;2023-04-25T01:52:13;10.50;99.90
37518;DHT22;23366;52.498;13.446;2023-04-25T01:54:39;10.50;99.90
37518;DHT22;23366;52.498;13.446;2023-04-25T01:57:09;10.50;99.90
37518;DHT22;23366;52.498;13.446;2023-04-25T01:59:35;10.50;99.90
37518;DHT22;23366;52.498;13.446;2023-04-25T02:02:01;10.50;99.90
37518;DHT22;23366;52.498;13.446;2023-04-25T02:04:29;10.50;99.90
37518;DHT22;23366;52.498;13.446;2023-04-25T02:06:55;10.50;99.90
37518;DHT22;23366;52.498;13.446;2023-04-25T02:09:20;10.50;99.90
37518;DHT22;23366;52.498;13.446;2023-04-25T02:11:46;10.50;99.90
37518;DHT22;23366;52.498;13.446;2023-04-25T02:14:11;10.60;99.90
37518;DHT22;23366;52.498;13.446;2023-04-25T02:16:37;10.60;99.90
37518;DHT22;23366;52.498;13.446;2023-04-25T02:19:02;10.50;99.90
37518;DHT22;23366;52.498;13.446;2023-04-25T02:21:28;10.60;99.90
37518;DHT22;23366;52.498;13.446;2023-04-25T02:23:53;10.60;99.90
37518;DHT22;23366;52.498;13.446;2023-04-25T02:26:19;10.50;99.90
37518;DHT22;23366;52.498;13.446;2023-04-25T02:28:45;10.60;99.90
37518;DHT22;23366;52.498;13.446;2023-04-25T02:31:10;10.50;99.90
37518;DHT22;23366;52.498;13.446;2023-04-25T02:33:36;10.50;99.90
37518;DHT22;23366;52.498;13.446;2023-04-25T02:36:01;10.50;99.90
37518;DHT22;23366;52.498;13.446;2023-04-25T02:38:26;10.40;99.90
37518;DHT22;23366;52.498;13.446;2023-04-25T02:40:52;10.40;99.90
37518;DHT22;23366;52.498;13.446;2023-04-25T02:43:17;10.50;99.90
37518;DHT22;23366;52.498;13.446;2023-04-25T02:45:43;10.50;99.90
37518;DHT22;23366;52.498;13.446;2023-04-25T02:48:08;10.50;99.90
37518;DHT22;23366;52.498;13.446;2023-04-25T02:50:34;10.50;99.90
37518;DHT22;23366;52.498;13.446;2023-04-25T02:52:59;10.50;99.90
37518;DHT22;23366;52.498;13.446;2023-04-25T02:55:25;10.50;99.90
37518;DHT22;23366;52.498;13.446;2023-04-25T02:57:51;10.50;99.90
37518;DHT22;23366;52.498;13.446;2023-04-25T03:00:16;10.50;99.90
37518;DHT22;23366;52.498;13.446;2023-04-25T03:02:42;10.40;99.90
37518;DHT22;23366;52.498;13.446;2023-04-25T03:05:07;10.40;99.90
37518;DHT22;23366;52.498;13.446;2023-04-25T03:07:33;10.40;99.90
37518;DHT22;23366;52.498;13.446;2023-04-25T03:09:58;10.40;99.90
37518;DHT22;23366;52.498;13.446;2023-04-25T03:12:24;10.40;99.90
37518;DHT22;23366;52.498;13.446;2023-04-25T03:14:49;10.40;99.90
37518;DHT22;23366;52.498;13.446;2023-04-25T03:17:15;10.40;99.90
37518;DHT22;23366;52.498;13.446;2023-04-25T03:19:41;10.40;99.90
37518;DHT22;23366;52.498;13.446;2023-04-25T03:22:06;10.40;99.90
37518;DHT22;23366;52.498;13.446;2023-04-25T03:24:32;10.30;99.90
37518;DHT22;23366;52.498;13.446;2023-04-25T03:26:57;10.40;99.90
37518;DHT22;23366;52.498;13.446;2023-04-25T03:29:23;10.30;99.90
37518;DHT22;23366;52.498;13.446;2023-04-25T03:31:51;10.40;99.90
37518;DHT22;23366;52.498;13.446;2023-04-25T03:34:16;10.40;99.90
37518;DHT22;23366;52.498;13.446;2023-04-25T03:36:42;10.40;99.90
37518;DHT22;23366;52.498;13.446;2023-04-25T03:39:07;10.40;99.90
37518;DHT22;23366;52.498;13.446;2023-04-25T03:41:32;10.40;99.90
37518;DHT22;23366;52.498;13.446;2023-04-25T03:43:58;10.40;99.90
37518;DHT22;23366;52.498;13.446;2023-04-25T03:46:23;10.40;99.90
37518;DHT22;23366;52.498;13.446;2023-04-25T03:48:49;10.40;99.90
37518;DHT22;23366;52.498;13.446;2023-04-25T03:51:14;10.40;99.90
37518;DHT22;23366;52.498;13.446;2023-04-25T03:53:40;10.40;99.90
37518;DHT22;23366;52.498;13.446;2023-04-25T03:56:06;10.40;99.90
37518;DHT22;23366;52.498;13.446;2023-04-25T03:58:32;10.40;99.90
37518;DHT22;23366;52.498;13.446;2023-04-25T04:00:57;10.40;99.90
37518;DHT22;23366;52.498;13.446;2023-04-25T04:03:23;10.40;99.90
37518;DHT22;23366;52.498;13.446;2023-04-25T04:05:48;10.40;99.90
37518;DHT22;23366;52.498;13.446;2023-04-25T04:08:14;10.40;99.90
37518;DHT22;23366;52.498;13.446;2023-04-25T04:10:39;10.40;99.90
37518;DHT22;23366;52.498;13.446;2023-04-25T04:13:05;10.40;99.90
37518;DHT22;23366;52.498;13.446;2023-04-25T04:15:31;10.40;99.90
37518;DHT22;23366;52.498;13.446;2023-04-25T04:17:58;10.40;99.90
37518;DHT22;23366;52.498;13.446;2023-04-25T04:20:28;10.40;99.90
37518;DHT22;23366;52.498;13.446;2023-04-25T04:22:53;10.40;99.90
37518;DHT22;23366;52.498;13.446;2023-04-25T04:25:19;10.40;99.90
37518;DHT22;23366;52.498;13.446;2023-04-25T04:27:44;10.40;99.90
37518;DHT22;23366;52.498;13.446;2023-04-25T04:30:11;10.40;99.90
37518;DHT22;23366;52.498;13.446;2023-04-25T04:32:37;10.40;99.90
37518;DHT22;23366;52.498;13.446;2023-04-25T04:35:04;10.40;99.90
37518;DHT22;23366;52.498;13.446;2023-04-25T04:37:31;10.50;99.90
37518;DHT22;23366;52.498;13.446;2023-04-25T04:39:57;10.50;99.90
37518;DHT22;23366;52.498;13.446;2023-04-25T04:42:23;10.50;99.90
37518;DHT22;23366;52.498;13.446;2023-04-25T04:44:49;10.50;99.90
37518;DHT22;23366;52.498;13.446;2023-04-25T04:47:15;10.50;99.90
37518;DHT22;23366;52.498;13.446;2023-04-25T04:49:40;10.50;99.90
37518;DHT22;23366;52.498;13.446;2023-04-25T04:52:06;10.50;99.90
37518;DHT22;23366;52.498;13.446;2023-04-25T04:54:32;10.50;99.90
37518;DHT22;23366;52.498;13.446;2023-04-25T04:56:58;10.50;99.90
37518;DHT22;23366;52.498;13.446;2023-04-25T04:59:23;10.60;99.90
37518;DHT22;23366;52.498;13.446;2023-04-25T05:01:49;10.60;99.90
37518;DHT22;23366;52.498;13.446;2023-04-25T05:04:15;10.70;99.90
37518;DHT22;23366;52.498;13.446;2023-04-25T05:06:40;10.60;99.90
37518;DHT22;23366;52.498;13.446;2023-04-25T05:09:06;10.70;99.90
37518;DHT22;23366;52.498;13.446;2023-04-25T05:11:31;10.60;99.90
37518;DHT22;23366;52.498;13.446;2023-04-25T05:13:57;10.70;99.90
37518;DHT22;23366;52.498;13.446;2023-04-25T05:16:22;10.70;99.90
37518;DHT22;23366;52.498;13.446;2023-04-25T05:18:48;10.70;99.90
37518;DHT22;23366;52.498;13.446;2023-04-25T05:21:14;10.80;99.90
37518;DHT22;23366;52.498;13.446;2023-04-25T05:23:39;10.80;99.90
37518;DHT22;23366;52.498;13.446;2023-04-25T05:26:06;10.80;99.90
37518;DHT22;23366;52.498;13.446;2023-04-25T05:28:39;10.70;99.90
37518;DHT22;23366;52.498;13.446;2023-04-25T05:31:05;10.70;99.90
37518;DHT22;23366;52.498;13.446;2023-04-25T05:33:30;10.80;99.90
37518;DHT22;23366;52.498;13.446;2023-04-25T05:35:56;10.70;99.90
37518;DHT22;23366;52.498;13.446;2023-04-25T05:38:21;10.80;99.90
37518;DHT22;23366;52.498;13.446;2023-04-25T05:40:47;10.80;99.90
37518;DHT22;23366;52.498;13.446;2023-04-25T05:43:12;10.80;99.90
37518;DHT22;23366;52.498;13.446;2023-04-25T05:45:38;10.90;99.90
37518;DHT22;23366;52.498;13.446;2023-04-25T05:48:03;10.80;99.90
37518;DHT22;23366;52.498;13.446;2023-04-25T05:50:28;10.80;99.90
37518;DHT22;23366;52.498;13.446;2023-04-25T05:52:54;10.80;99.90
37518;DHT22;23366;52.498;13.446;2023-04-25T05:55:19;10.80;99.90
37518;DHT22;23366;52.498;13.446;2023-04-25T05:57:45;10.80;99.90
37518;DHT22;23366;52.498;13.446;2023-04-25T06:00:12;10.80;99.90
37518;DHT22;23366;52.498;13.446;2023-04-25T06:02:38;10.80;99.90
37518;DHT22;23366;52.498;13.446;2023-04-25T06:05:04;10.70;99.90
37518;DHT22;23366;52.498;13.446;2023-04-25T06:07:30;10.80;99.90
37518;DHT22;23366;52.498;13.446;2023-04-25T06:09:56;10.80;99.90
37518;DHT22;23366;52.498;13.446;2023-04-25T06:12:22;10.90;99.90
37518;DHT22;23366;52.498;13.446;2023-04-25T06:14:47;10.90;99.90
37518;DHT22;23366;52.498;13.446;2023-04-25T06:17:13;10.90;99.90
37518;DHT22;23366;52.498;13.446;2023-04-25T06:19:39;11.00;99.90
37518;DHT22;23366;52.498;13.446;2023-04-25T06:22:04;11.00;99.90
37518;DHT22;23366;52.498;13.446;2023-04-25T06:24:30;11.00;99.90
37518;DHT22;23366;52.498;13.446;2023-04-25T06:26:55;11.10;99.90
37518;DHT22;23366;52.498;13.446;2023-04-25T06:29:21;11.10;99.90
37518;DHT22;23366;52.498;13.446;2023-04-25T06:31:46;11.10;99.90
37518;DHT22;23366;52.498;13.446;2023-04-25T06:34:12;11.10;99.90
37518;DHT22;23366;52.498;13.446;2023-04-25T06:36:37;11.10;99.90
37518;DHT22;23366;52.498;13.446;2023-04-25T06:39:03;11.20;99.90
37518;DHT22;23366;52.498;13.446;2023-04-25T06:41:28;11.20;99.90
37518;DHT22;23366;52.498;13.446;2023-04-25T06:43:54;11.20;99.90
37518;DHT22;23366;52.498;13.446;2023-04-25T06:46:19;11.20;99.90
37518;DHT22;23366;52.498;13.446;2023-04-25T06:48:45;11.20;99.90
37518;DHT22;23366;52.498;13.446;2023-04-25T06:51:11;11.20;99.90
37518;DHT22;23366;52.498;13.446;2023-04-25T06:53:38;11.20;99.90
37518;DHT22;23366;52.498;13.446;2023-04-25T06:56:04;11.20;99.90
37518;DHT22;23366;52.498;13.446;2023-04-25T06:58:30;11.10;99.90
37518;DHT22;23366;52.498;13.446;2023-04-25T07:00:55;11.10;99.90
37518;DHT22;23366;52.498;13.446;2023-04-25T07:03:21;11.10;99.90
37518;DHT22;23366;52.498;13.446;2023-04-25T07:05:46;11.10;99.90
37518;DHT22;23366;52.498;13.446;2023-04-25T07:08:12;11.10;99.90
37518;DHT22;23366;52.498;13.446;2023-04-25T07:10:40;11.10;99.90
37518;DHT22;23366;52.498;13.446;2023-04-25T07:13:05;11.10;99.90
37518;DHT22;23366;52.498;13.446;2023-04-25T07:15:31;11.10;99.90
37518;DHT22;23366;52.498;13.446;2023-04-25T07:17:56;11.20;99.90
37518;DHT22;23366;52.498;13.446;2023-04-25T07:20:22;11.10;99.90
37518;DHT22;23366;52.498;13.446;2023-04-25T07:22:54;11.10;99.90
37518;DHT22;23366;52.498;13.446;2023-04-25T07:25:27;11.10;99.90
37518;DHT22;23366;52.498;13.446;2023-04-25T07:31:14;11.00;99.90
37518;DHT22;23366;52.498;13.446;2023-04-25T07:34:12;11.00;99.90
37518;DHT22;23366;52.498;13.446;2023-04-25T07:36:57;11.00;99.90
37518;DHT22;23366;52.498;13.446;2023-04-25T07:39:25;10.90;99.90
37518;DHT22;23366;52.498;13.446;2023-04-25T07:41:50;11.00;99.90
37518;DHT22;23366;52.498;13.446;2023-04-25T07:44:16;11.00;99.90
37518;DHT22;23366;52.498;13.446;2023-04-25T07:46:41;11.10;99.90
37518;DHT22;23366;52.498;13.446;2023-04-25T07:49:07;11.20;99.90
37518;DHT22;23366;52.498;13.446;2023-04-25T07:51:32;11.30;99.90
37518;DHT22;23366;52.498;13.446;2023-04-25T07:53:58;11.30;99.90
37518;DHT22;23366;52.498;13.446;2023-04-25T07:56:24;11.40;99.90
37518;DHT22;23366;52.498;13.446;2023-04-25T07:58:50;11.50;99.90
37518;DHT22;23366;52.498;13.446;2023-04-25T08:01:16;11.60;99.90
37518;DHT22;23366;52.498;13.446;2023-04-25T08:03:42;11.60;99.90
37518;DHT22;23366;52.498;13.446;2023-04-25T08:06:07;11.60;99.90
37518;DHT22;23366;52.498;13.446;2023-04-25T08:08:33;11.60;99.90
37518;DHT22;23366;52.498;13.446;2023-04-25T08:10:58;11.60;99.90
37518;DHT22;23366;52.498;13.446;2023-04-25T08:13:23;11.60;99.90
37518;DHT22;23366;52.498;13.446;2023-04-25T08:15:49;11.60;99.90
37518;DHT22;23366;52.498;13.446;2023-04-25T08:18:14;11.70;99.90
37518;DHT22;23366;52.498;13.446;2023-04-25T08:20:40;12.00;99.90
37518;DHT22;23366;52.498;13.446;2023-04-25T08:23:05;12.50;99.90
37518;DHT22;23366;52.498;13.446;2023-04-25T08:25:31;12.80;99.90
37518;DHT22;23366;52.498;13.446;2023-04-25T08:27:56;13.10;99.90
37518;DHT22;23366;52.498;13.446;2023-04-25T08:30:24;13.20;99.90
37518;DHT22;23366;52.498;13.446;2023-04-25T08:32:50;13.10;99.90
37518;DHT22;23366;52.498;13.446;2023-04-25T08:35:15;13.20;99.90
37518;DHT22;23366;52.498;13.446;2023-04-25T08:37:42;13.60;99.90
37518;DHT22;23366;52.498;13.446;2023-04-25T08:40:11;14.10;99.90
37518;DHT22;23366;52.498;13.446;2023-04-25T08:42:37;14.60;98.40
37518;DHT22;23366;52.498;13.446;2023-04-25T08:45:03;14.70;97.30
37518;DHT22;23366;52.498;13.446;2023-04-25T08:47:30;14.70;95.40
37518;DHT22;23366;52.498;13.446;2023-04-25T08:49:58;14.50;95.20
37518;DHT22;23366;52.498;13.446;2023-04-25T08:52:28;14.30;95.00
37518;DHT22;23366;52.498;13.446;2023-04-25T08:54:55;14.10;95.00
37518;DHT22;23366;52.498;13.446;2023-04-25T08:57:22;14.10;95.50
37518;DHT22;23366;52.498;13.446;2023-04-25T08:59:48;14.20;94.80
37518;DHT22;23366;52.498;13.446;2023-04-25T09:02:14;14.30;92.80
37518;DHT22;23366;52.498;13.446;2023-04-25T09:04:43;14.60;92.10
37518;DHT22;23366;52.498;13.446;2023-04-25T09:07:09;14.90;91.50
37518;DHT22;23366;52.498;13.446;2023-04-25T09:09:35;15.20;90.30
37518;DHT22;23366;52.498;13.446;2023-04-25T09:12:01;15.80;88.80
37518;DHT22;23366;52.498;13.446;2023-04-25T09:14:27;16.30;86.10
37518;DHT22;23366;52.498;13.446;2023-04-25T09:19:22;17.80;81.60
37518;DHT22;23366;52.498;13.446;2023-04-25T09:21:54;18.50;77.20
37518;DHT22;23366;52.498;13.446;2023-04-25T09:24:51;18.90;74.10
37518;DHT22;23366;52.498;13.446;2023-04-25T09:27:21;19.00;70.90
37518;DHT22;23366;52.498;13.446;2023-04-25T09:29:57;19.00;69.70
37518;DHT22;23366;52.498;13.446;2023-04-25T09:32:24;18.70;69.70
37518;DHT22;23366;52.498;13.446;2023-04-25T09:34:51;18.70;69.90
37518;DHT22;23366;52.498;13.446;2023-04-25T09:37:27;18.40;69.80
37518;DHT22;23366;52.498;13.446;2023-04-25T09:39:57;18.30;69.60
37518;DHT22;23366;52.498;13.446;2023-04-25T09:42:28;17.90;70.20
37518;DHT22;23366;52.498;13.446;2023-04-25T09:44:55;17.70;71.00
37518;DHT22;23366;52.498;13.446;2023-04-25T09:47:23;17.60;70.50
37518;DHT22;23366;52.498;13.446;2023-04-25T09:49:52;17.50;70.10
37518;DHT22;23366;52.498;13.446;2023-04-25T09:52:20;17.20;69.80
37518;DHT22;23366;52.498;13.446;2023-04-25T09:54:46;16.90;68.50
37518;DHT22;23366;52.498;13.446;2023-04-25T09:57:16;16.30;68.30
37518;DHT22;23366;52.498;13.446;2023-04-25T09:59:47;15.90;69.60
37518;DHT22;23366;52.498;13.446;2023-04-25T10:02:14;15.60;69.10
37518;DHT22;23366;52.498;13.446;2023-04-25T10:04:40;15.40;69.50
37518;DHT22;23366;52.498;13.446;2023-04-25T10:07:07;15.40;69.70
37518;DHT22;23366;52.498;13.446;2023-04-25T10:09:34;15.40;70.20
37518;DHT22;23366;52.498;13.446;2023-04-25T10:12:02;15.40;70.70
37518;DHT22;23366;52.498;13.446;2023-04-25T10:14:30;15.50;71.20
37518;DHT22;23366;52.498;13.446;2023-04-25T10:16:57;15.60;70.20
37518;DHT22;23366;52.498;13.446;2023-04-25T10:19:24;15.70;70.40
37518;DHT22;23366;52.498;13.446;2023-04-25T10:22:03;15.80;69.40
37518;DHT22;23366;52.498;13.446;2023-04-25T10:24:29;15.80;69.90
37518;DHT22;23366;52.498;13.446;2023-04-25T10:26:56;15.80;70.30
37518;DHT22;23366;52.498;13.446;2023-04-25T10:29:24;15.80;70.30
37518;DHT22;23366;52.498;13.446;2023-04-25T10:31:52;15.90;70.20
37518;DHT22;23366;52.498;13.446;2023-04-25T10:34:18;15.80;69.20
37518;DHT22;23366;52.498;13.446;2023-04-25T10:36:52;15.80;68.50
37518;DHT22;23366;52.498;13.446;2023-04-25T10:39:26;15.70;69.20
37518;DHT22;23366;52.498;13.446;2023-04-25T10:41:58;15.60;69.20
37518;DHT22;23366;52.498;13.446;2023-04-25T10:44:30;15.60;69.60
37518;DHT22;23366;52.498;13.446;2023-04-25T10:46:57;15.60;69.70
37518;DHT22;23366;52.498;13.446;2023-04-25T10:49:33;15.50;69.60
37518;DHT22;23366;52.498;13.446;2023-04-25T10:52:15;15.30;70.00
37518;DHT22;23366;52.498;13.446;2023-04-25T10:54:48;15.10;70.50
37518;DHT22;23366;52.498;13.446;2023-04-25T10:57:41;15.00;71.20
37518;DHT22;23366;52.498;13.446;2023-04-25T11:00:19;14.90;71.30
37518;DHT22;23366;52.498;13.446;2023-04-25T11:02:47;14.90;71.80
37518;DHT22;23366;52.498;13.446;2023-04-25T11:05:20;14.90;72.50
37518;DHT22;23366;52.498;13.446;2023-04-25T11:07:54;15.00;71.90
37518;DHT22;23366;52.498;13.446;2023-04-25T11:10:27;15.10;70.70
37518;DHT22;23366;52.498;13.446;2023-04-25T11:12:53;15.20;70.70
37518;DHT22;23366;52.498;13.446;2023-04-25T11:15:19;15.30;70.40
37518;DHT22;23366;52.498;13.446;2023-04-25T11:17:44;15.50;70.30
37518;DHT22;23366;52.498;13.446;2023-04-25T11:20:12;15.70;69.80
37518;DHT22;23366;52.498;13.446;2023-04-25T11:22:39;15.80;69.30
37518;DHT22;23366;52.498;13.446;2023-04-25T11:25:09;15.70;69.30
37518;DHT22;23366;52.498;13.446;2023-04-25T11:27:38;15.30;68.80
37518;DHT22;23366;52.498;13.446;2023-04-25T11:30:14;15.00;69.50
37518;DHT22;23366;52.498;13.446;2023-04-25T11:32:43;14.50;70.60
37518;DHT22;23366;52.498;13.446;2023-04-25T11:35:09;14.10;71.10
37518;DHT22;23366;52.498;13.446;2023-04-25T11:37:35;13.80;71.60
37518;DHT22;23366;52.498;13.446;2023-04-25T11:40:02;13.60;71.80
37518;DHT22;23366;52.498;13.446;2023-04-25T11:42:28;13.40;71.20
37518;DHT22;23366;52.498;13.446;2023-04-25T11:44:55;13.30;71.70
37518;DHT22;23366;52.498;13.446;2023-04-25T11:47:26;13.30;71.20
37518;DHT22;23366;52.498;13.446;2023-04-25T11:49:52;13.30;70.70
37518;DHT22;23366;52.498;13.446;2023-04-25T11:52:18;13.40;71.60
37518;DHT22;23366;52.498;13.446;2023-04-25T11:54:44;13.50;70.20
37518;DHT22;23366;52.498;13.446;2023-04-25T11:57:10;13.60;70.00
37518;DHT22;23366;52.498;13.446;2023-04-25T11:59:36;13.70;69.70
37518;DHT22;23366;52.498;13.446;2023-04-25T12:02:02;13.80;69.60
37518;DHT22;23366;52.498;13.446;2023-04-25T12:04:30;14.00;69.10
37518;DHT22;23366;52.498;13.446;2023-04-25T12:06:56;14.20;68.60
37518;DHT22;23366;52.498;13.446;2023-04-25T12:09:32;14.30;68.40
37518;DHT22;23366;52.498;13.446;2023-04-25T12:11:59;14.40;68.10
37518;DHT22;23366;52.498;13.446;2023-04-25T12:14:29;14.40;68.10
37518;DHT22;23366;52.498;13.446;2023-04-25T12:16:57;14.60;68.20
37518;DHT22;23366;52.498;13.446;2023-04-25T12:19:23;14.70;67.80
37518;DHT22;23366;52.498;13.446;2023-04-25T12:21:49;14.70;68.40
37518;DHT22;23366;52.498;13.446;2023-04-25T12:24:17;14.80;68.30
37518;DHT22;23366;52.498;13.446;2023-04-25T12:29:23;14.80;67.90
37518;DHT22;23366;52.498;13.446;2023-04-25T12:31:50;14.70;66.30
37518;DHT22;23366;52.498;13.446;2023-04-25T12:34:16;14.70;65.90
37518;DHT22;23366;52.498;13.446;2023-04-25T12:36:42;14.80;66.50
37518;DHT22;23366;52.498;13.446;2023-04-25T12:39:07;14.90;65.40
37518;DHT22;23366;52.498;13.446;2023-04-25T12:41:33;14.90;64.80
37518;DHT22;23366;52.498;13.446;2023-04-25T12:43:59;15.00;64.30
37518;DHT22;23366;52.498;13.446;2023-04-25T12:46:24;15.20;65.30
37518;DHT22;23366;52.498;13.446;2023-04-25T12:48:50;15.20;65.20
37518;DHT22;23366;52.498;13.446;2023-04-25T12:51:15;15.30;65.30
37518;DHT22;23366;52.498;13.446;2023-04-25T12:53:44;15.30;64.60
37518;DHT22;23366;52.498;13.446;2023-04-25T12:56:10;15.20;64.60
37518;DHT22;23366;52.498;13.446;2023-04-25T12:58:36;15.10;65.40
37518;DHT22;23366;52.498;13.446;2023-04-25T13:01:19;15.00;65.80
37518;DHT22;23366;52.498;13.446;2023-04-25T13:03:57;15.00;66.30
37518;DHT22;23366;52.498;13.446;2023-04-25T13:06:25;15.00;65.90
37518;DHT22;23366;52.498;13.446;2023-04-25T13:08:51;15.00;66.20
37518;DHT22;23366;52.498;13.446;2023-04-25T13:11:23;14.90;65.90
37518;DHT22;23366;52.498;13.446;2023-04-25T13:13:52;15.00;66.50
37518;DHT22;23366;52.498;13.446;2023-04-25T13:16:19;15.00;66.30
37518;DHT22;23366;52.498;13.446;2023-04-25T13:18:58;15.10;65.50
37518;DHT22;23366;52.498;13.446;2023-04-25T13:21:26;15.10;64.20
37518;DHT22;23366;52.498;13.446;2023-04-25T13:23:55;15.20;63.80
37518;DHT22;23366;52.498;13.446;2023-04-25T13:26:23;15.00;64.00
37518;DHT22;23366;52.498;13.446;2023-04-25T13:28:56;15.00;65.00
37518;DHT22;23366;52.498;13.446;2023-04-25T13:31:25;14.90;66.20
37518;DHT22;23366;52.498;13.446;2023-04-25T13:34:04;14.70;65.50
37518;DHT22;23366;52.498;13.446;2023-04-25T13:36:35;14.70;66.60
37518;DHT22;23366;52.498;13.446;2023-04-25T13:39:03;14.60;66.20
37518;DHT22;23366;52.498;13.446;2023-04-25T13:41:35;14.60;65.90
37518;DHT22;23366;52.498;13.446;2023-04-25T13:44:00;14.50;66.40
37518;DHT22;23366;52.498;13.446;2023-04-25T13:46:29;14.50;67.00
37518;DHT22;23366;52.498;13.446;2023-04-25T13:48:58;14.50;67.80
37518;DHT22;23366;52.498;13.446;2023-04-25T13:51:33;14.60;67.80
37518;DHT22;23366;52.498;13.446;2023-04-25T13:54:04;14.50;68.30
37518;DHT22;23366;52.498;13.446;2023-04-25T13:56:36;14.60;68.80
37518;DHT22;23366;52.498;13.446;2023-04-25T13:59:02;14.60;68.30
37518;DHT22;23366;52.498;13.446;2023-04-25T14:01:30;14.80;68.00
37518;DHT22;23366;52.498;13.446;2023-04-25T14:04:02;14.90;68.00
37518;DHT22;23366;52.498;13.446;2023-04-25T14:06:29;14.90;67.90
37518;DHT22;23366;52.498;13.446;2023-04-25T14:08:57;14.80;67.70
37518;DHT22;23366;52.498;13.446;2023-04-25T14:11:26;14.60;67.50
37518;DHT22;23366;52.498;13.446;2023-04-25T14:13:54;14.50;68.60
37518;DHT22;23366;52.498;13.446;2023-04-25T14:16:22;14.30;68.70
37518;DHT22;23366;52.498;13.446;2023-04-25T14:18:48;14.10;69.20
37518;DHT22;23366;52.498;13.446;2023-04-25T14:21:20;13.90;69.50
37518;DHT22;23366;52.498;13.446;2023-04-25T14:23:46;13.70;69.80
37518;DHT22;23366;52.498;13.446;2023-04-25T14:26:22;13.70;69.60
37518;DHT22;23366;52.498;13.446;2023-04-25T14:28:48;13.70;70.00
37518;DHT22;23366;52.498;13.446;2023-04-25T14:31:14;13.60;69.20
37518;DHT22;23366;52.498;13.446;2023-04-25T14:33:43;13.40;69.10
37518;DHT22;23366;52.498;13.446;2023-04-25T14:36:09;13.30;69.10
37518;DHT22;23366;52.498;13.446;2023-04-25T14:38:38;13.30;69.30
37518;DHT22;23366;52.498;13.446;2023-04-25T14:41:04;13.30;70.00
37518;DHT22;23366;52.498;13.446;2023-04-25T14:43:39;13.30;70.50
37518;DHT22;23366;52.498;13.446;2023-04-25T14:46:06;13.40;70.00
37518;DHT22;23366;52.498;13.446;2023-04-25T14:48:35;13.50;69.50
37518;DHT22;23366;52.498;13.446;2023-04-25T14:51:00;13.60;69.20
37518;DHT22;23366;52.498;13.446;2023-04-25T14:53:27;13.60;69.90
37518;DHT22;23366;52.498;13.446;2023-04-25T14:55:53;13.60;70.40
37518;DHT22;23366;52.498;13.446;2023-04-25T14:58:19;13.60;70.70
37518;DHT22;23366;52.498;13.446;2023-04-25T15:00:45;13.50;71.00
37518;DHT22;23366;52.498;13.446;2023-04-25T15:03:11;13.50;71.70
37518;DHT22;23366;52.498;13.446;2023-04-25T15:05:41;13.40;72.40
37518;DHT22;23366;52.498;13.446;2023-04-25T15:08:08;13.50;72.90
37518;DHT22;23366;52.498;13.446;2023-04-25T15:10:34;13.30;73.30
37518;DHT22;23366;52.498;13.446;2023-04-25T15:13:02;13.20;73.40
37518;DHT22;23366;52.498;13.446;2023-04-25T15:15:28;13.00;73.80
37518;DHT22;23366;52.498;13.446;2023-04-25T15:17:55;12.90;75.00
37518;DHT22;23366;52.498;13.446;2023-04-25T15:20:21;12.90;75.00
37518;DHT22;23366;52.498;13.446;2023-04-25T15:22:47;12.80;75.20
37518;DHT22;23366;52.498;13.446;2023-04-25T15:25:14;12.70;75.50